sensor_id;sensor_type;location;lat;lon;timestamp;P1;durP1;ratioP1;P2;durP2;ratioP2
19107;SDS011;9686;48.832;9.126;2022-12-05T00:02:03;15.37;;;9.67;;
19107;SDS011;9686;48.832;9.126;2022-12-05T00:04:28;17.17;;;9.60;;
19107;SDS011;9686;48.832;9.126;2022-12-05T00:06:53;16.40;;;9.50;;
19107;SDS011;9686;48.832;9.126;2022-12-05T00:09:19;12.43;;;8.03;;
19107;SDS011;9686;48.832;9.126;2022-12-05T00:11:44;18.10;;;9.93;;
19107;SDS011;9686;48.832;9.126;2022-12-05T00:14:11;17.33;;;9.97;;
19107;SDS011;9686;48.832;9.126;2022-12-05T00:16:38;15.50;;;9.70;;
19107;SDS011;9686;48.832;9.126;2022-12-05T00:19:05;16.60;;;9.63;;
19107;SDS011;9686;48.832;9.126;2022-12-05T00:21:32;16.03;;;9.03;;
19107;SDS011;9686;48.832;9.126;2022-12-05T00:23:59;17.90;;;10.77;;
19107;SDS011;9686;48.832;9.126;2022-12-05T00:26:26;20.87;;;10.47;;
19107;SDS011;9686;48.832;9.126;2022-12-05T00:28:52;18.50;;;10.60;;
19107;SDS011;9686;48.832;9.126;2022-12-05T00:31:19;19.63;;;9.93;;
19107;SDS011;9686;48.832;9.126;2022-12-05T00:33:46;17.40;;;10.67;;
19107;SDS011;9686;48.832;9.126;2022-12-05T00:36:16;17.93;;;9.57;;
19107;SDS011;9686;48.832;9.126;2022-12-05T00:38:52;18.90;;;10.37;;
19107;SDS011;9686;48.832;9.126;2022-12-05T00:41:19;21.23;;;10.57;;
19107;SDS011;9686;48.832;9.126;2022-12-05T00:43:46;19.97;;;10.93;;
19107;SDS011;9686;48.832;9.126;2022-12-05T00:46:14;19.83;;;9.93;;
19107;SDS011;9686;48.832;9.126;2022-12-05T00:48:41;19.87;;;10.77;;
19107;SDS011;9686;48.832;9.126;2022-12-05T00:51:08;18.10;;;9.87;;
19107;SDS011;9686;48.832;9.126;2022-12-05T00:53:38;16.90;;;9.67;;
19107;SDS011;9686;48.832;9.126;2022-12-05T00:56:04;20.00;;;10.87;;
19107;SDS011;9686;48.832;9.126;2022-12-05T00:58:32;18.67;;;10.37;;
19107;SDS011;9686;48.832;9.126;2022-12-05T01:01:04;18.93;;;9.90;;
19107;SDS011;9686;48.832;9.126;2022-12-05T01:03:40;16.30;;;9.37;;
19107;SDS011;9686;48.832;9.126;2022-12-05T01:06:07;21.47;;;10.40;;
19107;SDS011;9686;48.832;9.126;2022-12-05T01:08:33;18.10;;;10.23;;
19107;SDS011;9686;48.832;9.126;2022-12-05T01:10:59;19.07;;;10.20;;
19107;SDS011;9686;48.832;9.126;2022-12-05T01:13:25;18.40;;;10.40;;
19107;SDS011;9686;48.832;9.126;2022-12-05T01:15:51;18.57;;;10.87;;
19107;SDS011;9686;48.832;9.126;2022-12-05T01:18:17;16.37;;;9.40;;
19107;SDS011;9686;48.832;9.126;2022-12-05T01:20:43;19.93;;;10.87;;
19107;SDS011;9686;48.832;9.126;2022-12-05T01:23:09;17.40;;;10.53;;
19107;SDS011;9686;48.832;9.126;2022-12-05T01:25:34;19.77;;;10.13;;
19107;SDS011;9686;48.832;9.126;2022-12-05T01:28:04;18.13;;;10.23;;
19107;SDS011;9686;48.832;9.126;2022-12-05T01:30:29;18.27;;;9.63;;
19107;SDS011;9686;48.832;9.126;2022-12-05T01:32:54;20.87;;;10.50;;
19107;SDS011;9686;48.832;9.126;2022-12-05T01:35:20;15.47;;;9.30;;
19107;SDS011;9686;48.832;9.126;2022-12-05T01:37:45;18.40;;;10.67;;
19107;SDS011;9686;48.832;9.126;2022-12-05T01:40:10;17.97;;;9.87;;
19107;SDS011;9686;48.832;9.126;2022-12-05T01:42:35;16.47;;;9.47;;
19107;SDS011;9686;48.832;9.126;2022-12-05T01:45:06;17.43;;;10.07;;
19107;SDS011;9686;48.832;9.126;2022-12-05T01:47:38;18.30;;;10.07;;
19107;SDS011;9686;48.832;9.126;2022-12-05T01:50:04;19.23;;;10.83;;
19107;SDS011;9686;48.832;9.126;2022-12-05T01:52:30;17.10;;;10.00;;
19107;SDS011;9686;48.832;9.126;2022-12-05T01:54:59;16.93;;;10.27;;
19107;SDS011;9686;48.832;9.126;2022-12-05T01:57:28;17.27;;;9.47;;
19107;SDS011;9686;48.832;9.126;2022-12-05T01:59:56;19.33;;;10.17;;
19107;SDS011;9686;48.832;9.126;2022-12-05T02:02:25;20.67;;;11.17;;
19107;SDS011;9686;48.832;9.126;2022-12-05T02:07:24;19.67;;;9.80;;
19107;SDS011;9686;48.832;9.126;2022-12-05T02:09:50;16.77;;;9.17;;
19107;SDS011;9686;48.832;9.126;2022-12-05T02:12:15;17.87;;;9.53;;
19107;SDS011;9686;48.832;9.126;2022-12-05T02:14:45;19.50;;;10.67;;
19107;SDS011;9686;48.832;9.126;2022-12-05T02:20:27;14.57;;;9.77;;
19107;SDS011;9686;48.832;9.126;2022-12-05T02:31:52;13.57;;;8.73;;
19107;SDS011;9686;48.832;9.126;2022-12-05T02:34:44;12.77;;;8.60;;
19107;SDS011;9686;48.832;9.126;2022-12-05T02:37:22;15.93;;;9.07;;
19107;SDS011;9686;48.832;9.126;2022-12-05T02:40:00;12.67;;;8.33;;
19107;SDS011;9686;48.832;9.126;2022-12-05T02:42:49;14.57;;;8.27;;
19107;SDS011;9686;48.832;9.126;2022-12-05T02:45:22;13.90;;;7.60;;
19107;SDS011;9686;48.832;9.126;2022-12-05T02:47:52;15.17;;;8.50;;
19107;SDS011;9686;48.832;9.126;2022-12-05T02:50:19;13.80;;;8.10;;
19107;SDS011;9686;48.832;9.126;2022-12-05T02:52:47;15.37;;;8.53;;
19107;SDS011;9686;48.832;9.126;2022-12-05T02:55:17;11.30;;;7.20;;
19107;SDS011;9686;48.832;9.126;2022-12-05T02:57:44;12.33;;;7.00;;
19107;SDS011;9686;48.832;9.126;2022-12-05T03:00:14;10.73;;;7.03;;
19107;SDS011;9686;48.832;9.126;2022-12-05T03:02:40;12.53;;;7.27;;
19107;SDS011;9686;48.832;9.126;2022-12-05T03:05:28;10.93;;;6.97;;
19107;SDS011;9686;48.832;9.126;2022-12-05T03:08:14;13.20;;;7.67;;
19107;SDS011;9686;48.832;9.126;2022-12-05T03:10:45;11.07;;;7.33;;
19107;SDS011;9686;48.832;9.126;2022-12-05T03:13:15;13.27;;;7.87;;
19107;SDS011;9686;48.832;9.126;2022-12-05T03:15:49;14.57;;;7.87;;
19107;SDS011;9686;48.832;9.126;2022-12-05T03:24:25;13.83;;;8.47;;
19107;SDS011;9686;48.832;9.126;2022-12-05T03:32:18;14.57;;;7.97;;
19107;SDS011;9686;48.832;9.126;2022-12-05T03:40:46;13.73;;;8.53;;
19107;SDS011;9686;48.832;9.126;2022-12-05T03:43:55;12.07;;;8.43;;
19107;SDS011;9686;48.832;9.126;2022-12-05T03:54:23;16.37;;;9.40;;
19107;SDS011;9686;48.832;9.126;2022-12-05T03:57:04;17.90;;;9.77;;
19107;SDS011;9686;48.832;9.126;2022-12-05T03:59:38;15.40;;;8.93;;
19107;SDS011;9686;48.832;9.126;2022-12-05T04:02:10;16.43;;;9.00;;
19107;SDS011;9686;48.832;9.126;2022-12-05T04:04:48;12.47;;;8.30;;
19107;SDS011;9686;48.832;9.126;2022-12-05T04:07:19;13.53;;;8.30;;
19107;SDS011;9686;48.832;9.126;2022-12-05T04:09:50;14.63;;;8.90;;
19107;SDS011;9686;48.832;9.126;2022-12-05T04:12:21;14.37;;;8.63;;
19107;SDS011;9686;48.832;9.126;2022-12-05T04:14:51;17.13;;;9.00;;
19107;SDS011;9686;48.832;9.126;2022-12-05T04:20:03;14.03;;;8.30;;
19107;SDS011;9686;48.832;9.126;2022-12-05T04:22:48;15.80;;;8.07;;
19107;SDS011;9686;48.832;9.126;2022-12-05T04:25:14;15.67;;;8.63;;
19107;SDS011;9686;48.832;9.126;2022-12-05T04:33:40;16.10;;;8.73;;
19107;SDS011;9686;48.832;9.126;2022-12-05T04:36:15;16.10;;;9.10;;
19107;SDS011;9686;48.832;9.126;2022-12-05T04:38:51;15.77;;;8.67;;
19107;SDS011;9686;48.832;9.126;2022-12-05T04:41:26;12.90;;;8.00;;
19107;SDS011;9686;48.832;9.126;2022-12-05T04:43:56;15.00;;;8.20;;
19107;SDS011;9686;48.832;9.126;2022-12-05T04:46:25;15.87;;;8.50;;
19107;SDS011;9686;48.832;9.126;2022-12-05T04:48:56;14.07;;;8.60;;
19107;SDS011;9686;48.832;9.126;2022-12-05T04:51:25;14.80;;;9.10;;
19107;SDS011;9686;48.832;9.126;2022-12-05T04:53:59;14.10;;;8.77;;
19107;SDS011;9686;48.832;9.126;2022-12-05T04:56:29;15.90;;;8.73;;
19107;SDS011;9686;48.832;9.126;2022-12-05T04:58:58;14.63;;;8.73;;
19107;SDS011;9686;48.832;9.126;2022-12-05T05:01:24;15.77;;;9.00;;
19107;SDS011;9686;48.832;9.126;2022-12-05T05:04:13;16.90;;;8.37;;
19107;SDS011;9686;48.832;9.126;2022-12-05T05:06:46;13.47;;;8.47;;
19107;SDS011;9686;48.832;9.126;2022-12-05T05:09:11;13.30;;;8.20;;
19107;SDS011;9686;48.832;9.126;2022-12-05T05:11:37;13.40;;;7.60;;
19107;SDS011;9686;48.832;9.126;2022-12-05T05:14:02;14.13;;;8.57;;
19107;SDS011;9686;48.832;9.126;2022-12-05T05:16:29;12.43;;;7.80;;
19107;SDS011;9686;48.832;9.126;2022-12-05T05:19:00;15.97;;;8.47;;
19107;SDS011;9686;48.832;9.126;2022-12-05T05:21:30;15.27;;;9.43;;
19107;SDS011;9686;48.832;9.126;2022-12-05T05:23:57;15.73;;;9.07;;
19107;SDS011;9686;48.832;9.126;2022-12-05T05:26:24;16.70;;;8.53;;
19107;SDS011;9686;48.832;9.126;2022-12-05T05:28:50;16.13;;;9.10;;
19107;SDS011;9686;48.832;9.126;2022-12-05T05:31:16;14.40;;;8.67;;
19107;SDS011;9686;48.832;9.126;2022-12-05T05:33:42;14.17;;;8.67;;
19107;SDS011;9686;48.832;9.126;2022-12-05T05:36:09;14.47;;;8.07;;
19107;SDS011;9686;48.832;9.126;2022-12-05T05:38:36;14.53;;;8.37;;
19107;SDS011;9686;48.832;9.126;2022-12-05T05:41:03;16.47;;;9.47;;
19107;SDS011;9686;48.832;9.126;2022-12-05T05:43:29;14.60;;;8.60;;
19107;SDS011;9686;48.832;9.126;2022-12-05T05:45:54;18.50;;;9.57;;
19107;SDS011;9686;48.832;9.126;2022-12-05T05:48:20;15.57;;;8.60;;
19107;SDS011;9686;48.832;9.126;2022-12-05T05:50:45;17.97;;;9.03;;
19107;SDS011;9686;48.832;9.126;2022-12-05T05:53:11;14.63;;;8.67;;
19107;SDS011;9686;48.832;9.126;2022-12-05T05:55:39;16.13;;;10.40;;
19107;SDS011;9686;48.832;9.126;2022-12-05T05:58:05;15.50;;;9.00;;
19107;SDS011;9686;48.832;9.126;2022-12-05T06:00:31;14.87;;;8.70;;
19107;SDS011;9686;48.832;9.126;2022-12-05T06:02:56;14.10;;;9.03;;
19107;SDS011;9686;48.832;9.126;2022-12-05T06:05:21;15.93;;;9.53;;
19107;SDS011;9686;48.832;9.126;2022-12-05T06:07:47;15.20;;;8.23;;
19107;SDS011;9686;48.832;9.126;2022-12-05T06:10:12;11.70;;;7.50;;
19107;SDS011;9686;48.832;9.126;2022-12-05T06:12:37;13.13;;;8.13;;
19107;SDS011;9686;48.832;9.126;2022-12-05T06:15:03;17.40;;;9.10;;
19107;SDS011;9686;48.832;9.126;2022-12-05T06:17:28;13.37;;;7.73;;
19107;SDS011;9686;48.832;9.126;2022-12-05T06:19:54;15.33;;;8.80;;
19107;SDS011;9686;48.832;9.126;2022-12-05T06:22:19;15.43;;;8.43;;
19107;SDS011;9686;48.832;9.126;2022-12-05T06:24:45;18.40;;;9.13;;
19107;SDS011;9686;48.832;9.126;2022-12-05T06:27:10;18.27;;;10.47;;
19107;SDS011;9686;48.832;9.126;2022-12-05T06:29:35;12.03;;;8.77;;
19107;SDS011;9686;48.832;9.126;2022-12-05T06:32:01;18.43;;;9.80;;
19107;SDS011;9686;48.832;9.126;2022-12-05T06:34:26;16.13;;;9.07;;
19107;SDS011;9686;48.832;9.126;2022-12-05T06:36:51;13.77;;;8.80;;
19107;SDS011;9686;48.832;9.126;2022-12-05T06:39:17;17.37;;;9.90;;
19107;SDS011;9686;48.832;9.126;2022-12-05T06:41:42;14.73;;;8.90;;
19107;SDS011;9686;48.832;9.126;2022-12-05T06:44:07;15.93;;;8.37;;
19107;SDS011;9686;48.832;9.126;2022-12-05T06:46:33;15.37;;;8.33;;
19107;SDS011;9686;48.832;9.126;2022-12-05T06:48:59;17.83;;;9.43;;
19107;SDS011;9686;48.832;9.126;2022-12-05T06:51:24;14.80;;;8.90;;
19107;SDS011;9686;48.832;9.126;2022-12-05T06:53:50;16.17;;;9.40;;
19107;SDS011;9686;48.832;9.126;2022-12-05T06:56:16;16.07;;;9.20;;
19107;SDS011;9686;48.832;9.126;2022-12-05T06:58:44;15.33;;;8.97;;
19107;SDS011;9686;48.832;9.126;2022-12-05T07:01:12;17.40;;;9.67;;
19107;SDS011;9686;48.832;9.126;2022-12-05T07:03:58;14.53;;;8.83;;
19107;SDS011;9686;48.832;9.126;2022-12-05T07:06:24;14.67;;;8.97;;
19107;SDS011;9686;48.832;9.126;2022-12-05T07:08:50;13.90;;;9.17;;
19107;SDS011;9686;48.832;9.126;2022-12-05T07:11:15;18.53;;;9.73;;
19107;SDS011;9686;48.832;9.126;2022-12-05T07:13:40;17.93;;;9.63;;
19107;SDS011;9686;48.832;9.126;2022-12-05T07:16:06;15.13;;;9.87;;
19107;SDS011;9686;48.832;9.126;2022-12-05T07:18:32;16.47;;;9.80;;
19107;SDS011;9686;48.832;9.126;2022-12-05T07:20:59;18.53;;;10.10;;
19107;SDS011;9686;48.832;9.126;2022-12-05T07:23:27;17.00;;;10.10;;
19107;SDS011;9686;48.832;9.126;2022-12-05T07:25:53;17.03;;;9.73;;
19107;SDS011;9686;48.832;9.126;2022-12-05T07:28:19;15.77;;;9.37;;
19107;SDS011;9686;48.832;9.126;2022-12-05T07:30:44;17.13;;;8.70;;
19107;SDS011;9686;48.832;9.126;2022-12-05T07:33:10;15.43;;;9.40;;
19107;SDS011;9686;48.832;9.126;2022-12-05T07:35:35;19.43;;;10.27;;
19107;SDS011;9686;48.832;9.126;2022-12-05T07:38:01;14.47;;;10.40;;
19107;SDS011;9686;48.832;9.126;2022-12-05T07:40:26;16.47;;;10.07;;
19107;SDS011;9686;48.832;9.126;2022-12-05T07:42:52;13.63;;;9.13;;
19107;SDS011;9686;48.832;9.126;2022-12-05T07:45:18;17.77;;;9.37;;
19107;SDS011;9686;48.832;9.126;2022-12-05T07:47:43;14.10;;;9.00;;
19107;SDS011;9686;48.832;9.126;2022-12-05T07:50:09;16.33;;;8.93;;
19107;SDS011;9686;48.832;9.126;2022-12-05T07:52:35;13.67;;;8.60;;
19107;SDS011;9686;48.832;9.126;2022-12-05T07:55:00;14.40;;;9.30;;
19107;SDS011;9686;48.832;9.126;2022-12-05T07:57:27;15.73;;;8.83;;
19107;SDS011;9686;48.832;9.126;2022-12-05T07:59:53;13.50;;;8.40;;
19107;SDS011;9686;48.832;9.126;2022-12-05T08:02:18;15.97;;;8.47;;
19107;SDS011;9686;48.832;9.126;2022-12-05T08:04:44;15.33;;;9.47;;
19107;SDS011;9686;48.832;9.126;2022-12-05T08:07:09;12.47;;;7.73;;
19107;SDS011;9686;48.832;9.126;2022-12-05T08:09:35;13.77;;;8.47;;
19107;SDS011;9686;48.832;9.126;2022-12-05T08:12:00;12.87;;;8.93;;
19107;SDS011;9686;48.832;9.126;2022-12-05T08:14:26;17.97;;;8.90;;
19107;SDS011;9686;48.832;9.126;2022-12-05T08:16:51;13.83;;;8.87;;
19107;SDS011;9686;48.832;9.126;2022-12-05T08:19:17;15.87;;;9.17;;
19107;SDS011;9686;48.832;9.126;2022-12-05T08:21:42;13.47;;;8.57;;
19107;SDS011;9686;48.832;9.126;2022-12-05T08:24:08;14.27;;;8.83;;
19107;SDS011;9686;48.832;9.126;2022-12-05T08:26:34;14.87;;;8.67;;
19107;SDS011;9686;48.832;9.126;2022-12-05T08:29:02;13.47;;;8.67;;
19107;SDS011;9686;48.832;9.126;2022-12-05T08:31:30;15.53;;;9.47;;
19107;SDS011;9686;48.832;9.126;2022-12-05T08:33:58;13.77;;;8.43;;
19107;SDS011;9686;48.832;9.126;2022-12-05T08:36:24;12.60;;;8.60;;
19107;SDS011;9686;48.832;9.126;2022-12-05T08:38:54;15.80;;;9.03;;
19107;SDS011;9686;48.832;9.126;2022-12-05T08:41:23;13.47;;;8.27;;
19107;SDS011;9686;48.832;9.126;2022-12-05T08:43:52;12.17;;;8.20;;
19107;SDS011;9686;48.832;9.126;2022-12-05T08:46:18;16.00;;;8.53;;
19107;SDS011;9686;48.832;9.126;2022-12-05T08:48:44;15.23;;;8.77;;
19107;SDS011;9686;48.832;9.126;2022-12-05T08:51:09;12.10;;;8.10;;
19107;SDS011;9686;48.832;9.126;2022-12-05T08:53:36;13.60;;;8.77;;
19107;SDS011;9686;48.832;9.126;2022-12-05T08:56:03;13.73;;;8.50;;
19107;SDS011;9686;48.832;9.126;2022-12-05T08:58:29;12.73;;;7.97;;
19107;SDS011;9686;48.832;9.126;2022-12-05T09:01:11;13.50;;;9.37;;
19107;SDS011;9686;48.832;9.126;2022-12-05T09:03:38;12.83;;;7.93;;
19107;SDS011;9686;48.832;9.126;2022-12-05T09:06:10;11.50;;;8.07;;
19107;SDS011;9686;48.832;9.126;2022-12-05T09:08:40;15.93;;;8.27;;
19107;SDS011;9686;48.832;9.126;2022-12-05T09:11:13;13.60;;;9.20;;
19107;SDS011;9686;48.832;9.126;2022-12-05T09:13:38;12.67;;;8.07;;
19107;SDS011;9686;48.832;9.126;2022-12-05T09:16:08;11.40;;;8.07;;
19107;SDS011;9686;48.832;9.126;2022-12-05T09:18:35;13.27;;;8.23;;
19107;SDS011;9686;48.832;9.126;2022-12-05T09:21:04;12.47;;;7.90;;
19107;SDS011;9686;48.832;9.126;2022-12-05T09:23:39;14.47;;;8.47;;
19107;SDS011;9686;48.832;9.126;2022-12-05T09:26:06;12.33;;;8.37;;
19107;SDS011;9686;48.832;9.126;2022-12-05T09:28:33;11.07;;;7.37;;
19107;SDS011;9686;48.832;9.126;2022-12-05T09:31:03;11.10;;;7.00;;
19107;SDS011;9686;48.832;9.126;2022-12-05T09:33:31;11.90;;;7.93;;
19107;SDS011;9686;48.832;9.126;2022-12-05T09:36:01;11.13;;;7.60;;
19107;SDS011;9686;48.832;9.126;2022-12-05T09:38:28;10.50;;;7.07;;
19107;SDS011;9686;48.832;9.126;2022-12-05T09:41:17;13.40;;;7.70;;
19107;SDS011;9686;48.832;9.126;2022-12-05T09:46:51;11.80;;;8.13;;
19107;SDS011;9686;48.832;9.126;2022-12-05T09:49:21;10.67;;;6.97;;
19107;SDS011;9686;48.832;9.126;2022-12-05T09:51:48;11.40;;;7.17;;
19107;SDS011;9686;48.832;9.126;2022-12-05T09:54:16;10.07;;;7.27;;
19107;SDS011;9686;48.832;9.126;2022-12-05T09:56:42;12.50;;;7.97;;
19107;SDS011;9686;48.832;9.126;2022-12-05T09:59:11;10.83;;;7.27;;
19107;SDS011;9686;48.832;9.126;2022-12-05T10:04:37;14.47;;;8.30;;
19107;SDS011;9686;48.832;9.126;2022-12-05T10:07:19;12.73;;;7.70;;
19107;SDS011;9686;48.832;9.126;2022-12-05T10:09:56;12.63;;;7.53;;
19107;SDS011;9686;48.832;9.126;2022-12-05T10:17:58;14.80;;;8.17;;
19107;SDS011;9686;48.832;9.126;2022-12-05T10:26:18;13.57;;;7.83;;
19107;SDS011;9686;48.832;9.126;2022-12-05T10:29:06;11.77;;;7.47;;
19107;SDS011;9686;48.832;9.126;2022-12-05T10:31:46;12.83;;;8.30;;
19107;SDS011;9686;48.832;9.126;2022-12-05T10:37:01;13.37;;;8.37;;
19107;SDS011;9686;48.832;9.126;2022-12-05T10:39:35;11.77;;;7.90;;
19107;SDS011;9686;48.832;9.126;2022-12-05T10:42:01;12.50;;;7.87;;
19107;SDS011;9686;48.832;9.126;2022-12-05T10:44:27;11.43;;;7.70;;
19107;SDS011;9686;48.832;9.126;2022-12-05T10:46:52;10.93;;;7.80;;
19107;SDS011;9686;48.832;9.126;2022-12-05T10:49:18;13.33;;;8.73;;
19107;SDS011;9686;48.832;9.126;2022-12-05T10:51:44;10.97;;;8.30;;
19107;SDS011;9686;48.832;9.126;2022-12-05T10:54:31;13.10;;;8.70;;
19107;SDS011;9686;48.832;9.126;2022-12-05T10:57:00;11.37;;;8.27;;
19107;SDS011;9686;48.832;9.126;2022-12-05T10:59:45;11.07;;;7.70;;
19107;SDS011;9686;48.832;9.126;2022-12-05T11:02:20;12.20;;;8.27;;
19107;SDS011;9686;48.832;9.126;2022-12-05T11:04:48;12.37;;;8.37;;
19107;SDS011;9686;48.832;9.126;2022-12-05T11:07:25;12.93;;;7.60;;
19107;SDS011;9686;48.832;9.126;2022-12-05T11:09:54;11.20;;;7.83;;
19107;SDS011;9686;48.832;9.126;2022-12-05T11:12:21;10.63;;;7.20;;
19107;SDS011;9686;48.832;9.126;2022-12-05T11:14:54;11.63;;;7.30;;
19107;SDS011;9686;48.832;9.126;2022-12-05T11:17:38;10.53;;;7.63;;
19107;SDS011;9686;48.832;9.126;2022-12-05T11:22:41;10.90;;;7.27;;
19107;SDS011;9686;48.832;9.126;2022-12-05T11:30:54;9.33;;;6.80;;
19107;SDS011;9686;48.832;9.126;2022-12-05T11:33:38;7.17;;;5.97;;
19107;SDS011;9686;48.832;9.126;2022-12-05T11:36:22;10.17;;;7.27;;
19107;SDS011;9686;48.832;9.126;2022-12-05T11:38:59;10.10;;;6.47;;
19107;SDS011;9686;48.832;9.126;2022-12-05T11:44:22;9.17;;;6.77;;
19107;SDS011;9686;48.832;9.126;2022-12-05T12:11:45;7.57;;;5.53;;
19107;SDS011;9686;48.832;9.126;2022-12-05T12:14:19;8.03;;;6.33;;
19107;SDS011;9686;48.832;9.126;2022-12-05T12:19:50;8.10;;;6.00;;
19107;SDS011;9686;48.832;9.126;2022-12-05T12:25:51;9.37;;;6.40;;
19107;SDS011;9686;48.832;9.126;2022-12-05T12:39:37;7.07;;;5.27;;
19107;SDS011;9686;48.832;9.126;2022-12-05T12:44:57;8.93;;;6.33;;
19107;SDS011;9686;48.832;9.126;2022-12-05T12:50:23;8.13;;;6.07;;
19107;SDS011;9686;48.832;9.126;2022-12-05T13:03:16;8.67;;;5.67;;
19107;SDS011;9686;48.832;9.126;2022-12-05T13:05:49;9.70;;;5.73;;
19107;SDS011;9686;48.832;9.126;2022-12-05T13:10:44;8.60;;;6.00;;
19107;SDS011;9686;48.832;9.126;2022-12-05T13:13:13;7.67;;;6.60;;
19107;SDS011;9686;48.832;9.126;2022-12-05T13:15:46;7.83;;;6.00;;
19107;SDS011;9686;48.832;9.126;2022-12-05T13:18:24;8.27;;;6.20;;
19107;SDS011;9686;48.832;9.126;2022-12-05T13:20:51;9.57;;;5.37;;
19107;SDS011;9686;48.832;9.126;2022-12-05T13:23:23;6.63;;;5.67;;
19107;SDS011;9686;48.832;9.126;2022-12-05T13:25:53;8.77;;;5.97;;
19107;SDS011;9686;48.832;9.126;2022-12-05T13:30:57;7.77;;;6.00;;
19107;SDS011;9686;48.832;9.126;2022-12-05T13:33:42;8.27;;;5.50;;
19107;SDS011;9686;48.832;9.126;2022-12-05T13:39:06;7.93;;;5.77;;
19107;SDS011;9686;48.832;9.126;2022-12-05T13:42:03;9.00;;;6.13;;
19107;SDS011;9686;48.832;9.126;2022-12-05T13:50:21;8.50;;;6.17;;
19107;SDS011;9686;48.832;9.126;2022-12-05T13:53:03;7.83;;;6.30;;
19107;SDS011;9686;48.832;9.126;2022-12-05T13:58:50;10.33;;;6.90;;
19107;SDS011;9686;48.832;9.126;2022-12-05T14:09:04;13.07;;;8.30;;
19107;SDS011;9686;48.832;9.126;2022-12-05T14:17:25;8.57;;;7.13;;
19107;SDS011;9686;48.832;9.126;2022-12-05T14:25:27;10.43;;;7.40;;
19107;SDS011;9686;48.832;9.126;2022-12-05T14:30:42;9.80;;;6.70;;
19107;SDS011;9686;48.832;9.126;2022-12-05T14:33:19;9.93;;;6.77;;
19107;SDS011;9686;48.832;9.126;2022-12-05T14:35:47;11.07;;;7.17;;
19107;SDS011;9686;48.832;9.126;2022-12-05T14:38:33;9.27;;;7.27;;
19107;SDS011;9686;48.832;9.126;2022-12-05T14:41:15;10.93;;;7.77;;
19107;SDS011;9686;48.832;9.126;2022-12-05T14:43:51;8.50;;;6.80;;
19107;SDS011;9686;48.832;9.126;2022-12-05T14:46:26;9.13;;;7.00;;
19107;SDS011;9686;48.832;9.126;2022-12-05T14:48:54;11.97;;;7.73;;
19107;SDS011;9686;48.832;9.126;2022-12-05T14:53:54;12.33;;;7.60;;
19107;SDS011;9686;48.832;9.126;2022-12-05T14:56:26;12.67;;;8.07;;
19107;SDS011;9686;48.832;9.126;2022-12-05T14:58:56;10.97;;;7.83;;
19107;SDS011;9686;48.832;9.126;2022-12-05T15:01:30;13.17;;;9.07;;
19107;SDS011;9686;48.832;9.126;2022-12-05T15:06:54;12.53;;;8.47;;
19107;SDS011;9686;48.832;9.126;2022-12-05T15:15:14;11.40;;;8.30;;
19107;SDS011;9686;48.832;9.126;2022-12-05T15:20:15;11.60;;;8.53;;
19107;SDS011;9686;48.832;9.126;2022-12-05T15:22:45;14.00;;;9.30;;
19107;SDS011;9686;48.832;9.126;2022-12-05T15:25:24;13.73;;;8.83;;
19107;SDS011;9686;48.832;9.126;2022-12-05T15:27:54;12.47;;;9.43;;
19107;SDS011;9686;48.832;9.126;2022-12-05T15:30:25;13.37;;;8.27;;
19107;SDS011;9686;48.832;9.126;2022-12-05T15:32:51;14.47;;;8.57;;
19107;SDS011;9686;48.832;9.126;2022-12-05T15:35:17;15.40;;;8.50;;
19107;SDS011;9686;48.832;9.126;2022-12-05T15:37:51;10.20;;;8.13;;
19107;SDS011;9686;48.832;9.126;2022-12-05T15:40:20;13.23;;;8.60;;
19107;SDS011;9686;48.832;9.126;2022-12-05T15:45:22;12.07;;;8.63;;
19107;SDS011;9686;48.832;9.126;2022-12-05T15:47:50;14.93;;;8.37;;
19107;SDS011;9686;48.832;9.126;2022-12-05T15:50:40;17.13;;;9.60;;
19107;SDS011;9686;48.832;9.126;2022-12-05T15:55:52;15.20;;;9.23;;
19107;SDS011;9686;48.832;9.126;2022-12-05T16:00:51;16.47;;;11.10;;
19107;SDS011;9686;48.832;9.126;2022-12-05T16:03:23;15.27;;;9.43;;
19107;SDS011;9686;48.832;9.126;2022-12-05T16:05:58;14.77;;;10.27;;
19107;SDS011;9686;48.832;9.126;2022-12-05T16:08:28;11.53;;;8.13;;
19107;SDS011;9686;48.832;9.126;2022-12-05T16:11:08;12.83;;;8.63;;
19107;SDS011;9686;48.832;9.126;2022-12-05T16:13:34;13.73;;;9.03;;
19107;SDS011;9686;48.832;9.126;2022-12-05T16:16:01;12.90;;;9.30;;
19107;SDS011;9686;48.832;9.126;2022-12-05T16:18:29;11.87;;;8.53;;
19107;SDS011;9686;48.832;9.126;2022-12-05T16:20:56;13.47;;;8.67;;
19107;SDS011;9686;48.832;9.126;2022-12-05T16:23:23;13.13;;;8.70;;
19107;SDS011;9686;48.832;9.126;2022-12-05T16:26:17;13.33;;;9.87;;
19107;SDS011;9686;48.832;9.126;2022-12-05T16:29:00;12.23;;;9.00;;
19107;SDS011;9686;48.832;9.126;2022-12-05T16:31:29;10.77;;;8.40;;
19107;SDS011;9686;48.832;9.126;2022-12-05T16:34:04;12.33;;;8.63;;
19107;SDS011;9686;48.832;9.126;2022-12-05T16:36:31;12.03;;;9.23;;
19107;SDS011;9686;48.832;9.126;2022-12-05T16:39:01;12.77;;;8.73;;
19107;SDS011;9686;48.832;9.126;2022-12-05T16:41:37;10.17;;;8.23;;
19107;SDS011;9686;48.832;9.126;2022-12-05T16:44:03;12.33;;;8.63;;
19107;SDS011;9686;48.832;9.126;2022-12-05T16:51:45;12.27;;;9.03;;
19107;SDS011;9686;48.832;9.126;2022-12-05T16:54:18;14.97;;;8.30;;
19107;SDS011;9686;48.832;9.126;2022-12-05T16:56:43;14.13;;;8.50;;
19107;SDS011;9686;48.832;9.126;2022-12-05T16:59:12;10.50;;;7.97;;
19107;SDS011;9686;48.832;9.126;2022-12-05T17:01:44;12.83;;;9.37;;
19107;SDS011;9686;48.832;9.126;2022-12-05T17:04:09;12.40;;;8.63;;
19107;SDS011;9686;48.832;9.126;2022-12-05T17:06:35;11.00;;;8.10;;
19107;SDS011;9686;48.832;9.126;2022-12-05T17:09:00;10.13;;;8.00;;
19107;SDS011;9686;48.832;9.126;2022-12-05T17:11:27;10.57;;;7.87;;
19107;SDS011;9686;48.832;9.126;2022-12-05T17:13:55;12.57;;;8.33;;
19107;SDS011;9686;48.832;9.126;2022-12-05T17:16:22;14.30;;;8.40;;
19107;SDS011;9686;48.832;9.126;2022-12-05T17:18:48;10.83;;;8.50;;
19107;SDS011;9686;48.832;9.126;2022-12-05T17:21:14;15.30;;;9.00;;
19107;SDS011;9686;48.832;9.126;2022-12-05T17:23:42;14.37;;;8.90;;
19107;SDS011;9686;48.832;9.126;2022-12-05T17:26:11;10.70;;;8.20;;
19107;SDS011;9686;48.832;9.126;2022-12-05T17:28:38;12.17;;;8.77;;
19107;SDS011;9686;48.832;9.126;2022-12-05T17:31:04;13.67;;;8.63;;
19107;SDS011;9686;48.832;9.126;2022-12-05T17:33:29;11.47;;;8.90;;
19107;SDS011;9686;48.832;9.126;2022-12-05T17:35:55;11.00;;;7.90;;
19107;SDS011;9686;48.832;9.126;2022-12-05T17:38:20;11.67;;;8.87;;
19107;SDS011;9686;48.832;9.126;2022-12-05T17:40:46;12.83;;;9.17;;
19107;SDS011;9686;48.832;9.126;2022-12-05T17:43:11;11.27;;;8.57;;
19107;SDS011;9686;48.832;9.126;2022-12-05T17:45:40;11.53;;;9.60;;
19107;SDS011;9686;48.832;9.126;2022-12-05T17:48:12;13.00;;;8.73;;
19107;SDS011;9686;48.832;9.126;2022-12-05T17:50:43;13.97;;;9.43;;
19107;SDS011;9686;48.832;9.126;2022-12-05T17:53:14;12.60;;;8.47;;
19107;SDS011;9686;48.832;9.126;2022-12-05T17:55:41;15.43;;;9.37;;
19107;SDS011;9686;48.832;9.126;2022-12-05T17:58:07;13.67;;;8.97;;
19107;SDS011;9686;48.832;9.126;2022-12-05T18:00:33;11.10;;;9.13;;
19107;SDS011;9686;48.832;9.126;2022-12-05T18:02:59;12.70;;;8.57;;
19107;SDS011;9686;48.832;9.126;2022-12-05T18:05:24;12.00;;;8.23;;
19107;SDS011;9686;48.832;9.126;2022-12-05T18:07:50;9.30;;;7.40;;
19107;SDS011;9686;48.832;9.126;2022-12-05T18:10:17;12.23;;;7.63;;
19107;SDS011;9686;48.832;9.126;2022-12-05T18:12:44;10.93;;;7.93;;
19107;SDS011;9686;48.832;9.126;2022-12-05T18:15:10;13.02;;;10.20;;
19107;SDS011;9686;48.832;9.126;2022-12-05T18:17:36;10.37;;;8.03;;
19107;SDS011;9686;48.832;9.126;2022-12-05T18:20:02;11.83;;;8.17;;
19107;SDS011;9686;48.832;9.126;2022-12-05T18:22:27;11.33;;;7.97;;
19107;SDS011;9686;48.832;9.126;2022-12-05T18:24:53;13.40;;;8.23;;
19107;SDS011;9686;48.832;9.126;2022-12-05T18:27:19;12.43;;;8.97;;